Kudat, Malaysia

12:48 AM MYT on August 26, 2016 (GMT +0800)
Kudat | | Change Station

Elev 16 ft 6.92 °N, 116.84 °E | Updated 48 minutes ago

Mostly Cloudy
Mostly Cloudy
82 °F
Feels Like 91 °F
N
0
Wind Variable Wind from North

Today
High -- | Low -- °F
--% Chance of Precip.
Yesterday
High -- | Low -- °F
Precip. -- in
Pressure 29.80 in
Visibility 6.2 miles
Clouds Few 1400 ft
Scattered Clouds 14000 ft
Mostly Cloudy 27000 ft
Heat Index 91 °F
Dew Point 77 °F
Humidity 84%
Rainfall 0.00 in
Snow Depth Not available.
6:06 AM 6:22 PM
Last Quarter, 44% visible
METAR WBKT 251600Z 00000KT 9999 FEW014 SCT140 BKN270 28/25 Q1009
Pressure 29.80 in
Visibility 6.2 miles
Clouds Few 1400 ft
Scattered Clouds 14000 ft
Mostly Cloudy 27000 ft
Heat Index 91 °F
Dew Point 77 °F
Humidity 84%
Rainfall 0.00 in
Snow Depth Not available.
6:06 AM 6:22 PM
Last Quarter, 44% visible
METAR WBKT 251600Z 00000KT 9999 FEW014 SCT140 BKN270 28/25 Q1009

10-Day Weather Forecast

No radar image for this location.
×

Almanac

Astronomy

Aug. 26, 2016 Rise Set
Actual Time
Civil Twilight
Nautical Twilight
Astronomical Twilight
Moon
Length of Visible Light
Length of Day
Tomorrow will be .
, % of the Moon is Illuminated

Today's Extremes

Country Highs Country Lows

Community

WunderPhotos

Upload Photos

1,934,869 photos uploaded!

WunderBlog® & News

Nearby

Air Quality

  Air Quality AQ Index Pollutant
Not available.

Snow Depth

Station Depth Elevation

Earthquake Activity

City Distance Mag. Time & Date
Minimum magnitude displayed is 2.5.

Coastal Water Temperatures

Place Temperature

Stations

Nearby Weather Stations

Station Location Temp. Windchill Dew Point Humidity Wind Precip. Elev Updated Type